sensor_id;sensor_type;location;lat;lon;timestamp;P1;durP1;ratioP1;P2;durP2;ratioP2
47455;SDS011;33202;48.512;-2.780;2024-03-02T00:02:02;6.43;;;1.20;;
47455;SDS011;33202;48.512;-2.780;2024-03-02T00:04:28;6.88;;;1.80;;
47455;SDS011;33202;48.512;-2.780;2024-03-02T00:06:54;9.38;;;4.07;;
47455;SDS011;33202;48.512;-2.780;2024-03-02T00:09:20;14.93;;;6.10;;
47455;SDS011;33202;48.512;-2.780;2024-03-02T00:11:46;17.80;;;6.20;;
47455;SDS011;33202;48.512;-2.780;2024-03-02T00:14:12;8.23;;;4.20;;
47455;SDS011;33202;48.512;-2.780;2024-03-02T00:16:39;19.90;;;8.27;;
47455;SDS011;33202;48.512;-2.780;2024-03-02T00:19:05;14.65;;;5.65;;
47455;SDS011;33202;48.512;-2.780;2024-03-02T00:21:31;10.27;;;4.60;;
47455;SDS011;33202;48.512;-2.780;2024-03-02T00:23:57;12.38;;;3.00;;
47455;SDS011;33202;48.512;-2.780;2024-03-02T00:26:24;11.88;;;2.85;;
47455;SDS011;33202;48.512;-2.780;2024-03-02T00:28:50;14.93;;;5.57;;
47455;SDS011;33202;48.512;-2.780;2024-03-02T00:31:20;7.68;;;2.30;;
47455;SDS011;33202;48.512;-2.780;2024-03-02T00:33:47;7.43;;;1.83;;
47455;SDS011;33202;48.512;-2.780;2024-03-02T00:36:14;9.97;;;3.07;;
47455;SDS011;33202;48.512;-2.780;2024-03-02T00:38:47;9.68;;;2.70;;
47455;SDS011;33202;48.512;-2.780;2024-03-02T00:41:19;10.20;;;2.50;;
47455;SDS011;33202;48.512;-2.780;2024-03-02T00:43:48;6.45;;;1.42;;
47455;SDS011;33202;48.512;-2.780;2024-03-02T00:46:17;11.10;;;1.70;;
47455;SDS011;33202;48.512;-2.780;2024-03-02T00:51:09;4.40;;;1.98;;
47455;SDS011;33202;48.512;-2.780;2024-03-02T00:53:36;6.07;;;1.88;;
47455;SDS011;33202;48.512;-2.780;2024-03-02T00:56:02;3.92;;;0.90;;
47455;SDS011;33202;48.512;-2.780;2024-03-02T00:58:28;5.45;;;1.48;;
47455;SDS011;33202;48.512;-2.780;2024-03-02T01:00:54;5.97;;;1.30;;
47455;SDS011;33202;48.512;-2.780;2024-03-02T01:03:21;6.93;;;1.60;;
47455;SDS011;33202;48.512;-2.780;2024-03-02T01:05:47;5.72;;;1.77;;
47455;SDS011;33202;48.512;-2.780;2024-03-02T01:08:13;3.75;;;0.90;;
47455;SDS011;33202;48.512;-2.780;2024-03-02T01:10:39;4.55;;;0.90;;
47455;SDS011;33202;48.512;-2.780;2024-03-02T01:13:05;7.85;;;1.65;;
47455;SDS011;33202;48.512;-2.780;2024-03-02T01:15:31;9.32;;;2.13;;
47455;SDS011;33202;48.512;-2.780;2024-03-02T01:17:58;5.53;;;1.05;;
47455;SDS011;33202;48.512;-2.780;2024-03-02T01:20:24;4.50;;;0.98;;
47455;SDS011;33202;48.512;-2.780;2024-03-02T01:22:50;4.20;;;1.30;;
47455;SDS011;33202;48.512;-2.780;2024-03-02T01:25:16;8.32;;;1.50;;
47455;SDS011;33202;48.512;-2.780;2024-03-02T01:27:42;8.70;;;1.38;;
47455;SDS011;33202;48.512;-2.780;2024-03-02T01:30:08;7.10;;;1.30;;
47455;SDS011;33202;48.512;-2.780;2024-03-02T01:32:35;5.10;;;1.20;;
47455;SDS011;33202;48.512;-2.780;2024-03-02T01:35:03;5.28;;;1.08;;
47455;SDS011;33202;48.512;-2.780;2024-03-02T01:37:29;4.20;;;0.90;;
47455;SDS011;33202;48.512;-2.780;2024-03-02T01:39:55;3.95;;;0.90;;
47455;SDS011;33202;48.512;-2.780;2024-03-02T01:42:21;6.13;;;0.93;;
47455;SDS011;33202;48.512;-2.780;2024-03-02T01:44:47;8.60;;;1.08;;
47455;SDS011;33202;48.512;-2.780;2024-03-02T01:47:13;5.97;;;1.00;;
47455;SDS011;33202;48.512;-2.780;2024-03-02T01:49:39;6.28;;;1.00;;
47455;SDS011;33202;48.512;-2.780;2024-03-02T01:52:06;4.13;;;1.10;;
47455;SDS011;33202;48.512;-2.780;2024-03-02T01:54:32;6.53;;;0.80;;
47455;SDS011;33202;48.512;-2.780;2024-03-02T01:56:58;3.72;;;0.75;;
47455;SDS011;33202;48.512;-2.780;2024-03-02T01:59:25;5.13;;;1.13;;
47455;SDS011;33202;48.512;-2.780;2024-03-02T02:01:51;6.50;;;0.95;;
47455;SDS011;33202;48.512;-2.780;2024-03-02T02:04:17;3.05;;;0.73;;
47455;SDS011;33202;48.512;-2.780;2024-03-02T02:06:45;4.45;;;1.27;;
47455;SDS011;33202;48.512;-2.780;2024-03-02T02:09:11;3.88;;;0.93;;
47455;SDS011;33202;48.512;-2.780;2024-03-02T02:11:37;5.63;;;0.80;;
47455;SDS011;33202;48.512;-2.780;2024-03-02T02:14:04;7.82;;;1.55;;
47455;SDS011;33202;48.512;-2.780;2024-03-02T02:16:30;5.70;;;0.90;;
47455;SDS011;33202;48.512;-2.780;2024-03-02T02:18:56;5.68;;;0.77;;
47455;SDS011;33202;48.512;-2.780;2024-03-02T02:21:25;5.30;;;0.88;;
47455;SDS011;33202;48.512;-2.780;2024-03-02T02:23:51;5.00;;;0.80;;
47455;SDS011;33202;48.512;-2.780;2024-03-02T02:26:17;3.83;;;0.60;;
47455;SDS011;33202;48.512;-2.780;2024-03-02T02:28:43;3.33;;;0.90;;
47455;SDS011;33202;48.512;-2.780;2024-03-02T02:31:15;5.03;;;0.77;;
47455;SDS011;33202;48.512;-2.780;2024-03-02T02:33:41;5.47;;;0.80;;
47455;SDS011;33202;48.512;-2.780;2024-03-02T02:36:07;4.18;;;0.80;;
47455;SDS011;33202;48.512;-2.780;2024-03-02T02:38:36;5.28;;;0.82;;
47455;SDS011;33202;48.512;-2.780;2024-03-02T02:41:03;5.18;;;1.83;;
47455;SDS011;33202;48.512;-2.780;2024-03-02T02:43:29;5.30;;;0.93;;
47455;SDS011;33202;48.512;-2.780;2024-03-02T02:45:55;5.57;;;1.27;;
47455;SDS011;33202;48.512;-2.780;2024-03-02T02:48:21;6.47;;;1.05;;
47455;SDS011;33202;48.512;-2.780;2024-03-02T02:50:47;5.78;;;1.20;;
47455;SDS011;33202;48.512;-2.780;2024-03-02T02:53:13;4.43;;;1.77;;
47455;SDS011;33202;48.512;-2.780;2024-03-02T02:55:39;5.72;;;1.02;;
47455;SDS011;33202;48.512;-2.780;2024-03-02T02:58:06;4.53;;;1.10;;
47455;SDS011;33202;48.512;-2.780;2024-03-02T03:00:32;5.60;;;1.20;;
47455;SDS011;33202;48.512;-2.780;2024-03-02T03:02:58;5.40;;;1.17;;
47455;SDS011;33202;48.512;-2.780;2024-03-02T03:05:24;4.22;;;1.05;;
47455;SDS011;33202;48.512;-2.780;2024-03-02T03:07:50;5.20;;;1.58;;
47455;SDS011;33202;48.512;-2.780;2024-03-02T03:10:16;4.70;;;1.40;;
47455;SDS011;33202;48.512;-2.780;2024-03-02T03:12:43;6.78;;;1.42;;
47455;SDS011;33202;48.512;-2.780;2024-03-02T03:15:09;5.70;;;1.15;;
47455;SDS011;33202;48.512;-2.780;2024-03-02T03:17:36;3.42;;;1.00;;
47455;SDS011;33202;48.512;-2.780;2024-03-02T03:20:02;5.78;;;1.13;;
47455;SDS011;33202;48.512;-2.780;2024-03-02T03:22:29;7.75;;;2.22;;
47455;SDS011;33202;48.512;-2.780;2024-03-02T03:24:56;8.05;;;2.65;;
47455;SDS011;33202;48.512;-2.780;2024-03-02T03:27:22;8.80;;;3.05;;
47455;SDS011;33202;48.512;-2.780;2024-03-02T03:29:48;11.75;;;4.40;;
47455;SDS011;33202;48.512;-2.780;2024-03-02T03:32:14;11.57;;;3.83;;
47455;SDS011;33202;48.512;-2.780;2024-03-02T03:34:41;6.20;;;2.20;;
47455;SDS011;33202;48.512;-2.780;2024-03-02T03:37:07;8.57;;;2.92;;
47455;SDS011;33202;48.512;-2.780;2024-03-02T03:39:34;5.40;;;1.58;;
47455;SDS011;33202;48.512;-2.780;2024-03-02T03:42:01;3.83;;;1.50;;
47455;SDS011;33202;48.512;-2.780;2024-03-02T03:44:27;3.75;;;1.40;;
47455;SDS011;33202;48.512;-2.780;2024-03-02T03:46:53;3.67;;;1.50;;
47455;SDS011;33202;48.512;-2.780;2024-03-02T03:49:19;5.80;;;1.77;;
47455;SDS011;33202;48.512;-2.780;2024-03-02T03:51:45;6.72;;;1.67;;
47455;SDS011;33202;48.512;-2.780;2024-03-02T03:54:11;6.32;;;2.05;;
47455;SDS011;33202;48.512;-2.780;2024-03-02T03:56:37;5.75;;;1.65;;
47455;SDS011;33202;48.512;-2.780;2024-03-02T03:59:03;7.15;;;1.30;;
47455;SDS011;33202;48.512;-2.780;2024-03-02T04:01:29;4.20;;;1.50;;
47455;SDS011;33202;48.512;-2.780;2024-03-02T04:03:56;3.85;;;1.40;;
47455;SDS011;33202;48.512;-2.780;2024-03-02T04:06:23;2.55;;;1.10;;
47455;SDS011;33202;48.512;-2.780;2024-03-02T04:08:49;5.97;;;1.30;;
47455;SDS011;33202;48.512;-2.780;2024-03-02T04:11:15;2.63;;;0.90;;
47455;SDS011;33202;48.512;-2.780;2024-03-02T04:13:41;5.32;;;1.10;;
47455;SDS011;33202;48.512;-2.780;2024-03-02T04:16:06;3.15;;;0.90;;
47455;SDS011;33202;48.512;-2.780;2024-03-02T04:18:32;6.78;;;1.40;;
47455;SDS011;33202;48.512;-2.780;2024-03-02T04:20:58;2.05;;;0.70;;
47455;SDS011;33202;48.512;-2.780;2024-03-02T04:23:25;3.42;;;0.93;;
47455;SDS011;33202;48.512;-2.780;2024-03-02T04:25:51;3.70;;;0.70;;
47455;SDS011;33202;48.512;-2.780;2024-03-02T04:28:17;8.82;;;0.88;;
47455;SDS011;33202;48.512;-2.780;2024-03-02T04:30:43;2.85;;;0.63;;
47455;SDS011;33202;48.512;-2.780;2024-03-02T04:33:09;4.80;;;0.85;;
47455;SDS011;33202;48.512;-2.780;2024-03-02T04:35:35;5.32;;;0.68;;
47455;SDS011;33202;48.512;-2.780;2024-03-02T04:38:01;4.80;;;0.98;;
47455;SDS011;33202;48.512;-2.780;2024-03-02T04:40:27;2.58;;;0.73;;
47455;SDS011;33202;48.512;-2.780;2024-03-02T04:42:53;4.55;;;0.88;;
47455;SDS011;33202;48.512;-2.780;2024-03-02T04:45:19;5.90;;;0.80;;
47455;SDS011;33202;48.512;-2.780;2024-03-02T04:47:45;3.80;;;1.00;;
47455;SDS011;33202;48.512;-2.780;2024-03-02T04:50:11;3.83;;;1.30;;
47455;SDS011;33202;48.512;-2.780;2024-03-02T04:52:37;5.32;;;0.93;;
47455;SDS011;33202;48.512;-2.780;2024-03-02T04:55:04;4.40;;;1.10;;
47455;SDS011;33202;48.512;-2.780;2024-03-02T04:58:00;5.80;;;1.10;;
47455;SDS011;33202;48.512;-2.780;2024-03-02T05:00:26;5.60;;;0.98;;
47455;SDS011;33202;48.512;-2.780;2024-03-02T05:02:52;5.40;;;1.30;;
47455;SDS011;33202;48.512;-2.780;2024-03-02T05:05:18;5.70;;;1.63;;
47455;SDS011;33202;48.512;-2.780;2024-03-02T05:07:44;5.30;;;1.20;;
47455;SDS011;33202;48.512;-2.780;2024-03-02T05:10:10;7.47;;;1.65;;
47455;SDS011;33202;48.512;-2.780;2024-03-02T05:12:39;4.80;;;1.70;;
47455;SDS011;33202;48.512;-2.780;2024-03-02T05:15:08;5.80;;;1.15;;
47455;SDS011;33202;48.512;-2.780;2024-03-02T05:17:38;6.30;;;1.47;;
47455;SDS011;33202;48.512;-2.780;2024-03-02T05:20:04;6.22;;;1.77;;
47455;SDS011;33202;48.512;-2.780;2024-03-02T05:22:35;3.97;;;1.30;;
47455;SDS011;33202;48.512;-2.780;2024-03-02T05:25:01;6.60;;;1.30;;
47455;SDS011;33202;48.512;-2.780;2024-03-02T05:27:27;7.57;;;1.85;;
47455;SDS011;33202;48.512;-2.780;2024-03-02T05:29:54;7.43;;;2.90;;
47455;SDS011;33202;48.512;-2.780;2024-03-02T05:32:19;7.85;;;3.28;;
47455;SDS011;33202;48.512;-2.780;2024-03-02T05:34:45;10.98;;;3.58;;
47455;SDS011;33202;48.512;-2.780;2024-03-02T05:37:11;5.63;;;1.95;;
47455;SDS011;33202;48.512;-2.780;2024-03-02T05:39:37;6.30;;;1.55;;
47455;SDS011;33202;48.512;-2.780;2024-03-02T05:42:03;5.43;;;1.45;;
47455;SDS011;33202;48.512;-2.780;2024-03-02T05:44:29;5.88;;;1.58;;
47455;SDS011;33202;48.512;-2.780;2024-03-02T05:46:56;4.25;;;0.80;;
47455;SDS011;33202;48.512;-2.780;2024-03-02T05:49:21;4.03;;;0.95;;
47455;SDS011;33202;48.512;-2.780;2024-03-02T05:51:48;3.90;;;0.90;;
47455;SDS011;33202;48.512;-2.780;2024-03-02T05:54:14;2.45;;;0.73;;
47455;SDS011;33202;48.512;-2.780;2024-03-02T05:56:40;2.88;;;0.70;;
47455;SDS011;33202;48.512;-2.780;2024-03-02T05:59:06;4.10;;;0.68;;
47455;SDS011;33202;48.512;-2.780;2024-03-02T06:01:42;5.63;;;0.80;;
47455;SDS011;33202;48.512;-2.780;2024-03-02T06:04:09;2.65;;;0.60;;
47455;SDS011;33202;48.512;-2.780;2024-03-02T06:06:38;2.05;;;0.60;;
47455;SDS011;33202;48.512;-2.780;2024-03-02T06:09:05;5.38;;;1.10;;
47455;SDS011;33202;48.512;-2.780;2024-03-02T06:11:37;4.35;;;0.80;;
47455;SDS011;33202;48.512;-2.780;2024-03-02T06:14:03;5.80;;;1.27;;
47455;SDS011;33202;48.512;-2.780;2024-03-02T06:16:29;4.22;;;0.80;;
47455;SDS011;33202;48.512;-2.780;2024-03-02T06:18:56;3.33;;;0.95;;
47455;SDS011;33202;48.512;-2.780;2024-03-02T06:21:25;4.43;;;0.90;;
47455;SDS011;33202;48.512;-2.780;2024-03-02T06:23:51;4.30;;;1.10;;
47455;SDS011;33202;48.512;-2.780;2024-03-02T06:26:17;3.50;;;1.30;;
47455;SDS011;33202;48.512;-2.780;2024-03-02T06:28:43;4.82;;;1.10;;
47455;SDS011;33202;48.512;-2.780;2024-03-02T06:31:09;5.63;;;1.23;;
47455;SDS011;33202;48.512;-2.780;2024-03-02T06:33:35;5.28;;;1.00;;
47455;SDS011;33202;48.512;-2.780;2024-03-02T06:36:01;4.63;;;0.85;;
47455;SDS011;33202;48.512;-2.780;2024-03-02T06:38:27;4.68;;;0.98;;
47455;SDS011;33202;48.512;-2.780;2024-03-02T06:40:53;4.85;;;1.10;;
47455;SDS011;33202;48.512;-2.780;2024-03-02T06:43:22;3.53;;;0.90;;
47455;SDS011;33202;48.512;-2.780;2024-03-02T06:45:51;4.40;;;1.10;;
47455;SDS011;33202;48.512;-2.780;2024-03-02T06:48:17;5.82;;;1.45;;
47455;SDS011;33202;48.512;-2.780;2024-03-02T06:50:47;3.53;;;1.15;;
47455;SDS011;33202;48.512;-2.780;2024-03-02T06:53:13;5.20;;;1.33;;
47455;SDS011;33202;48.512;-2.780;2024-03-02T06:55:42;5.80;;;1.75;;
47455;SDS011;33202;48.512;-2.780;2024-03-02T06:58:09;5.97;;;1.90;;
47455;SDS011;33202;48.512;-2.780;2024-03-02T07:00:35;5.07;;;1.77;;
47455;SDS011;33202;48.512;-2.780;2024-03-02T07:03:01;5.70;;;1.25;;
47455;SDS011;33202;48.512;-2.780;2024-03-02T07:05:27;4.32;;;1.20;;
47455;SDS011;33202;48.512;-2.780;2024-03-02T07:07:53;3.63;;;1.15;;
47455;SDS011;33202;48.512;-2.780;2024-03-02T07:10:19;5.03;;;0.85;;
47455;SDS011;33202;48.512;-2.780;2024-03-02T07:12:45;3.13;;;1.20;;
47455;SDS011;33202;48.512;-2.780;2024-03-02T07:15:11;5.10;;;1.02;;
47455;SDS011;33202;48.512;-2.780;2024-03-02T07:17:54;2.80;;;1.17;;
47455;SDS011;33202;48.512;-2.780;2024-03-02T07:20:20;6.45;;;1.58;;
47455;SDS011;33202;48.512;-2.780;2024-03-02T07:22:46;4.68;;;1.70;;
47455;SDS011;33202;48.512;-2.780;2024-03-02T07:25:12;3.90;;;1.38;;
47455;SDS011;33202;48.512;-2.780;2024-03-02T07:27:38;4.13;;;1.52;;
47455;SDS011;33202;48.512;-2.780;2024-03-02T07:30:05;7.40;;;2.50;;
47455;SDS011;33202;48.512;-2.780;2024-03-02T07:32:31;21.30;;;8.38;;
47455;SDS011;33202;48.512;-2.780;2024-03-02T07:34:57;24.45;;;9.10;;
47455;SDS011;33202;48.512;-2.780;2024-03-02T07:37:23;14.25;;;5.63;;
47455;SDS011;33202;48.512;-2.780;2024-03-02T07:39:50;14.23;;;5.65;;
47455;SDS011;33202;48.512;-2.780;2024-03-02T07:42:16;12.32;;;4.78;;
47455;SDS011;33202;48.512;-2.780;2024-03-02T07:44:43;13.68;;;4.38;;
47455;SDS011;33202;48.512;-2.780;2024-03-02T07:47:10;8.85;;;2.45;;
47455;SDS011;33202;48.512;-2.780;2024-03-02T07:49:36;14.30;;;5.93;;
47455;SDS011;33202;48.512;-2.780;2024-03-02T07:52:02;11.30;;;3.42;;
47455;SDS011;33202;48.512;-2.780;2024-03-02T07:54:28;10.50;;;2.97;;
47455;SDS011;33202;48.512;-2.780;2024-03-02T07:56:54;5.55;;;2.05;;
47455;SDS011;33202;48.512;-2.780;2024-03-02T07:59:20;10.43;;;3.72;;
47455;SDS011;33202;48.512;-2.780;2024-03-02T08:01:47;13.80;;;5.68;;
47455;SDS011;33202;48.512;-2.780;2024-03-02T08:04:13;5.78;;;2.10;;
47455;SDS011;33202;48.512;-2.780;2024-03-02T08:06:39;5.25;;;1.85;;
47455;SDS011;33202;48.512;-2.780;2024-03-02T08:09:05;8.65;;;1.63;;
47455;SDS011;33202;48.512;-2.780;2024-03-02T08:11:34;4.38;;;1.60;;
47455;SDS011;33202;48.512;-2.780;2024-03-02T08:14:00;7.53;;;2.45;;
47455;SDS011;33202;48.512;-2.780;2024-03-02T08:16:26;18.38;;;7.70;;
47455;SDS011;33202;48.512;-2.780;2024-03-02T08:18:52;10.90;;;2.97;;
47455;SDS011;33202;48.512;-2.780;2024-03-02T08:21:19;6.32;;;1.67;;
47455;SDS011;33202;48.512;-2.780;2024-03-02T08:23:45;14.43;;;4.78;;
47455;SDS011;33202;48.512;-2.780;2024-03-02T08:26:11;9.45;;;3.22;;
47455;SDS011;33202;48.512;-2.780;2024-03-02T08:28:37;12.43;;;4.32;;
47455;SDS011;33202;48.512;-2.780;2024-03-02T08:33:31;9.18;;;3.72;;
47455;SDS011;33202;48.512;-2.780;2024-03-02T08:35:57;8.40;;;2.85;;
47455;SDS011;33202;48.512;-2.780;2024-03-02T08:38:23;8.93;;;2.97;;
47455;SDS011;33202;48.512;-2.780;2024-03-02T08:40:49;7.95;;;2.13;;
47455;SDS011;33202;48.512;-2.780;2024-03-02T08:43:15;11.50;;;4.20;;
47455;SDS011;33202;48.512;-2.780;2024-03-02T08:45:41;11.02;;;3.08;;
47455;SDS011;33202;48.512;-2.780;2024-03-02T08:48:07;5.72;;;1.35;;
47455;SDS011;33202;48.512;-2.780;2024-03-02T08:50:34;6.85;;;1.35;;
47455;SDS011;33202;48.512;-2.780;2024-03-02T08:52:59;6.53;;;1.33;;
47455;SDS011;33202;48.512;-2.780;2024-03-02T08:55:26;4.55;;;1.30;;
47455;SDS011;33202;48.512;-2.780;2024-03-02T08:57:52;7.22;;;1.25;;
47455;SDS011;33202;48.512;-2.780;2024-03-02T09:00:18;4.32;;;1.33;;
47455;SDS011;33202;48.512;-2.780;2024-03-02T09:02:44;3.30;;;1.10;;
47455;SDS011;33202;48.512;-2.780;2024-03-02T09:05:10;5.15;;;1.00;;
47455;SDS011;33202;48.512;-2.780;2024-03-02T09:07:36;2.45;;;0.80;;
47455;SDS011;33202;48.512;-2.780;2024-03-02T09:10:05;2.17;;;0.80;;
47455;SDS011;33202;48.512;-2.780;2024-03-02T09:12:32;3.28;;;0.93;;
47455;SDS011;33202;48.512;-2.780;2024-03-02T09:14:58;4.35;;;1.30;;
47455;SDS011;33202;48.512;-2.780;2024-03-02T09:17:24;5.07;;;0.90;;
47455;SDS011;33202;48.512;-2.780;2024-03-02T09:19:50;3.85;;;1.10;;
47455;SDS011;33202;48.512;-2.780;2024-03-02T09:22:18;3.70;;;1.17;;
47455;SDS011;33202;48.512;-2.780;2024-03-02T09:24:44;3.05;;;0.90;;
47455;SDS011;33202;48.512;-2.780;2024-03-02T09:27:11;4.80;;;1.10;;
47455;SDS011;33202;48.512;-2.780;2024-03-02T09:29:37;6.03;;;1.23;;
47455;SDS011;33202;48.512;-2.780;2024-03-02T09:32:03;6.13;;;1.00;;
47455;SDS011;33202;48.512;-2.780;2024-03-02T09:34:30;3.70;;;1.00;;
47455;SDS011;33202;48.512;-2.780;2024-03-02T09:36:56;8.30;;;1.58;;
47455;SDS011;33202;48.512;-2.780;2024-03-02T09:39:22;3.28;;;1.10;;
47455;SDS011;33202;48.512;-2.780;2024-03-02T09:41:48;6.68;;;1.98;;
47455;SDS011;33202;48.512;-2.780;2024-03-02T09:44:14;6.20;;;1.63;;
47455;SDS011;33202;48.512;-2.780;2024-03-02T09:46:40;5.40;;;1.27;;
47455;SDS011;33202;48.512;-2.780;2024-03-02T09:49:08;8.27;;;1.10;;
47455;SDS011;33202;48.512;-2.780;2024-03-02T09:51:35;4.90;;;0.88;;
47455;SDS011;33202;48.512;-2.780;2024-03-02T09:54:01;3.28;;;0.85;;
47455;SDS011;33202;48.512;-2.780;2024-03-02T09:56:27;6.45;;;0.90;;
47455;SDS011;33202;48.512;-2.780;2024-03-02T09:58:53;5.95;;;1.25;;
47455;SDS011;33202;48.512;-2.780;2024-03-02T10:01:19;2.35;;;0.90;;
47455;SDS011;33202;48.512;-2.780;2024-03-02T10:03:45;6.78;;;1.23;;
47455;SDS011;33202;48.512;-2.780;2024-03-02T10:06:21;2.97;;;0.82;;
47455;SDS011;33202;48.512;-2.780;2024-03-02T10:08:48;3.63;;;0.80;;
47455;SDS011;33202;48.512;-2.780;2024-03-02T10:11:35;3.20;;;1.15;;
47455;SDS011;33202;48.512;-2.780;2024-03-02T10:14:05;4.22;;;0.82;;
47455;SDS011;33202;48.512;-2.780;2024-03-02T10:16:33;3.00;;;0.95;;
47455;SDS011;33202;48.512;-2.780;2024-03-02T10:19:12;3.38;;;0.80;;
47455;SDS011;33202;48.512;-2.780;2024-03-02T10:21:41;3.80;;;0.40;;
47455;SDS011;33202;48.512;-2.780;2024-03-02T10:24:07;4.10;;;0.95;;
47455;SDS011;33202;48.512;-2.780;2024-03-02T10:26:33;2.75;;;0.63;;
47455;SDS011;33202;48.512;-2.780;2024-03-02T10:28:59;2.88;;;0.45;;
47455;SDS011;33202;48.512;-2.780;2024-03-02T10:31:26;3.97;;;0.77;;
47455;SDS011;33202;48.512;-2.780;2024-03-02T10:33:55;4.60;;;0.77;;
47455;SDS011;33202;48.512;-2.780;2024-03-02T10:36:21;2.95;;;0.73;;
47455;SDS011;33202;48.512;-2.780;2024-03-02T10:38:47;5.28;;;0.75;;
47455;SDS011;33202;48.512;-2.780;2024-03-02T10:41:17;5.72;;;0.80;;
47455;SDS011;33202;48.512;-2.780;2024-03-02T10:43:43;4.25;;;0.70;;
47455;SDS011;33202;48.512;-2.780;2024-03-02T10:46:09;1.25;;;0.50;;
47455;SDS011;33202;48.512;-2.780;2024-03-02T10:48:36;4.38;;;1.05;;
47455;SDS011;33202;48.512;-2.780;2024-03-02T10:51:02;2.17;;;0.70;;
47455;SDS011;33202;48.512;-2.780;2024-03-02T10:53:28;2.30;;;0.52;;
47455;SDS011;33202;48.512;-2.780;2024-03-02T10:55:57;3.63;;;0.50;;
47455;SDS011;33202;48.512;-2.780;2024-03-02T10:58:29;4.22;;;0.73;;
47455;SDS011;33202;48.512;-2.780;2024-03-02T11:00:57;3.45;;;1.23;;
47455;SDS011;33202;48.512;-2.780;2024-03-02T11:03:26;3.80;;;1.70;;
47455;SDS011;33202;48.512;-2.780;2024-03-02T11:05:52;4.90;;;0.88;;
47455;SDS011;33202;48.512;-2.780;2024-03-02T11:08:19;1.43;;;0.47;;
47455;SDS011;33202;48.512;-2.780;2024-03-02T11:10:55;8.82;;;1.08;;
47455;SDS011;33202;48.512;-2.780;2024-03-02T11:13:22;2.97;;;0.70;;
47455;SDS011;33202;48.512;-2.780;2024-03-02T11:15:51;4.72;;;0.80;;
47455;SDS011;33202;48.512;-2.780;2024-03-02T11:18:20;2.97;;;0.60;;
47455;SDS011;33202;48.512;-2.780;2024-03-02T11:20:46;2.38;;;0.85;;
47455;SDS011;33202;48.512;-2.780;2024-03-02T11:23:13;1.63;;;0.60;;
47455;SDS011;33202;48.512;-2.780;2024-03-02T11:25:39;6.97;;;1.38;;
47455;SDS011;33202;48.512;-2.780;2024-03-02T11:28:06;3.45;;;0.95;;
47455;SDS011;33202;48.512;-2.780;2024-03-02T11:33:05;2.35;;;0.40;;
47455;SDS011;33202;48.512;-2.780;2024-03-02T11:35:37;6.70;;;1.50;;
47455;SDS011;33202;48.512;-2.780;2024-03-02T11:38:03;3.30;;;0.95;;
47455;SDS011;33202;48.512;-2.780;2024-03-02T11:40:30;5.03;;;0.80;;
47455;SDS011;33202;48.512;-2.780;2024-03-02T11:42:56;6.30;;;0.80;;
47455;SDS011;33202;48.512;-2.780;2024-03-02T11:45:23;1.98;;;0.82;;
47455;SDS011;33202;48.512;-2.780;2024-03-02T11:47:50;5.53;;;0.70;;
47455;SDS011;33202;48.512;-2.780;2024-03-02T11:50:40;3.72;;;0.80;;
47455;SDS011;33202;48.512;-2.780;2024-03-02T11:53:03;3.47;;;0.65;;
47455;SDS011;33202;48.512;-2.780;2024-03-02T11:55:31;3.47;;;0.85;;
47455;SDS011;33202;48.512;-2.780;2024-03-02T11:58:01;4.45;;;0.80;;
47455;SDS011;33202;48.512;-2.780;2024-03-02T12:00:27;2.72;;;0.52;;
47455;SDS011;33202;48.512;-2.780;2024-03-02T12:03:03;2.30;;;0.70;;
47455;SDS011;33202;48.512;-2.780;2024-03-02T12:05:29;3.10;;;0.60;;
47455;SDS011;33202;48.512;-2.780;2024-03-02T12:07:56;4.22;;;0.65;;
47455;SDS011;33202;48.512;-2.780;2024-03-02T12:10:23;5.32;;;0.70;;
47455;SDS011;33202;48.512;-2.780;2024-03-02T12:12:54;5.78;;;1.00;;
47455;SDS011;33202;48.512;-2.780;2024-03-02T12:15:22;4.28;;;1.35;;
47455;SDS011;33202;48.512;-2.780;2024-03-02T12:17:52;4.00;;;0.93;;
47455;SDS011;33202;48.512;-2.780;2024-03-02T12:20:18;3.75;;;0.70;;
47455;SDS011;33202;48.512;-2.780;2024-03-02T12:22:44;2.97;;;0.50;;
47455;SDS011;33202;48.512;-2.780;2024-03-02T12:25:11;2.05;;;0.50;;
47455;SDS011;33202;48.512;-2.780;2024-03-02T12:27:38;2.33;;;0.75;;
47455;SDS011;33202;48.512;-2.780;2024-03-02T12:32:33;5.50;;;1.48;;
47455;SDS011;33202;48.512;-2.780;2024-03-02T12:34:59;2.45;;;0.70;;
47455;SDS011;33202;48.512;-2.780;2024-03-02T12:37:25;1.98;;;0.80;;
47455;SDS011;33202;48.512;-2.780;2024-03-02T12:39:53;4.35;;;0.80;;
47455;SDS011;33202;48.512;-2.780;2024-03-02T12:42:19;3.33;;;0.65;;
47455;SDS011;33202;48.512;-2.780;2024-03-02T12:44:45;4.63;;;0.70;;
47455;SDS011;33202;48.512;-2.780;2024-03-02T12:47:11;3.55;;;0.82;;
47455;SDS011;33202;48.512;-2.780;2024-03-02T12:52:04;1.40;;;0.47;;
47455;SDS011;33202;48.512;-2.780;2024-03-02T12:54:30;1.42;;;0.63;;
47455;SDS011;33202;48.512;-2.780;2024-03-02T12:56:56;4.43;;;0.70;;
47455;SDS011;33202;48.512;-2.780;2024-03-02T12:59:23;2.20;;;0.70;;
47455;SDS011;33202;48.512;-2.780;2024-03-02T13:01:52;4.72;;;1.10;;
47455;SDS011;33202;48.512;-2.780;2024-03-02T13:04:21;3.47;;;0.60;;
47455;SDS011;33202;48.512;-2.780;2024-03-02T13:06:48;3.72;;;0.70;;
47455;SDS011;33202;48.512;-2.780;2024-03-02T13:09:15;1.63;;;0.45;;
47455;SDS011;33202;48.512;-2.780;2024-03-02T13:11:41;2.70;;;0.60;;
47455;SDS011;33202;48.512;-2.780;2024-03-02T13:14:07;2.65;;;0.60;;
47455;SDS011;33202;48.512;-2.780;2024-03-02T13:16:38;1.85;;;1.08;;
47455;SDS011;33202;48.512;-2.780;2024-03-02T13:19:11;3.92;;;0.82;;
47455;SDS011;33202;48.512;-2.780;2024-03-02T13:21:37;2.75;;;0.55;;
47455;SDS011;33202;48.512;-2.780;2024-03-02T13:24:03;1.30;;;0.50;;
47455;SDS011;33202;48.512;-2.780;2024-03-02T13:26:30;2.65;;;0.50;;
47455;SDS011;33202;48.512;-2.780;2024-03-02T13:28:56;2.83;;;0.38;;
47455;SDS011;33202;48.512;-2.780;2024-03-02T13:31:22;3.28;;;0.50;;
47455;SDS011;33202;48.512;-2.780;2024-03-02T13:33:48;4.30;;;0.77;;
47455;SDS011;33202;48.512;-2.780;2024-03-02T13:36:14;3.42;;;1.17;;
47455;SDS011;33202;48.512;-2.780;2024-03-02T13:38:40;3.25;;;0.60;;
47455;SDS011;33202;48.512;-2.780;2024-03-02T13:41:06;1.60;;;0.40;;
47455;SDS011;33202;48.512;-2.780;2024-03-02T13:43:32;3.00;;;0.70;;
47455;SDS011;33202;48.512;-2.780;2024-03-02T13:45:58;2.35;;;0.60;;
47455;SDS011;33202;48.512;-2.780;2024-03-02T13:48:24;3.67;;;0.60;;
47455;SDS011;33202;48.512;-2.780;2024-03-02T13:50:53;3.13;;;0.85;;
47455;SDS011;33202;48.512;-2.780;2024-03-02T13:53:19;2.08;;;0.57;;
47455;SDS011;33202;48.512;-2.780;2024-03-02T13:55:45;4.70;;;0.98;;
47455;SDS011;33202;48.512;-2.780;2024-03-02T13:58:11;4.85;;;0.95;;
47455;SDS011;33202;48.512;-2.780;2024-03-02T14:00:38;4.30;;;1.00;;
47455;SDS011;33202;48.512;-2.780;2024-03-02T14:03:04;4.32;;;0.75;;
47455;SDS011;33202;48.512;-2.780;2024-03-02T14:05:30;3.20;;;0.85;;
47455;SDS011;33202;48.512;-2.780;2024-03-02T14:07:56;5.45;;;0.85;;
47455;SDS011;33202;48.512;-2.780;2024-03-02T14:10:22;4.22;;;0.90;;
47455;SDS011;33202;48.512;-2.780;2024-03-02T14:12:48;4.75;;;0.55;;
47455;SDS011;33202;48.512;-2.780;2024-03-02T14:15:14;3.92;;;0.80;;
47455;SDS011;33202;48.512;-2.780;2024-03-02T14:17:40;4.28;;;0.68;;
47455;SDS011;33202;48.512;-2.780;2024-03-02T14:20:08;3.63;;;0.50;;
47455;SDS011;33202;48.512;-2.780;2024-03-02T14:22:36;2.90;;;0.50;;
47455;SDS011;33202;48.512;-2.780;2024-03-02T14:25:03;1.98;;;0.60;;
47455;SDS011;33202;48.512;-2.780;2024-03-02T14:27:29;1.00;;;0.47;;
47455;SDS011;33202;48.512;-2.780;2024-03-02T14:29:55;3.97;;;0.85;;
47455;SDS011;33202;48.512;-2.780;2024-03-02T14:32:21;2.58;;;0.70;;
47455;SDS011;33202;48.512;-2.780;2024-03-02T14:34:47;3.83;;;0.50;;
47455;SDS011;33202;48.512;-2.780;2024-03-02T14:37:14;5.05;;;0.47;;
47455;SDS011;33202;48.512;-2.780;2024-03-02T14:39:40;1.80;;;0.40;;
47455;SDS011;33202;48.512;-2.780;2024-03-02T14:42:07;4.55;;;0.88;;
47455;SDS011;33202;48.512;-2.780;2024-03-02T14:44:33;1.83;;;0.40;;